HESG

Sohag Airport

Sohag, Egypt
METAR HESG 140300Z 27006KT CAVOK 09/05 Q1021 NOSIG
Observed Flight Rules
Dec-14 @ 03:00 UTC (53 minutes ago) Visual Flight Rules
Wind Visibility Clouds
270° at 6 knots 10,000+ meters
  • Clear skies
Temperatures Readings
Current 9°C / 48°F
Dewpoint 5°C / 41°F
Humidity 76%
Altimeter 30.15" Hg
Pressure 1021 hPa
Elevation 70
METAR HESG 140300Z 27006KT CAVOK 09/05 Q1021 NOSIG
Observed Flight Rules
Dec-14 @ 03:00 UTC
(53 minutes ago)
VFR
Wind Visibility
270° at 6 knots 10,000+ meters
Clouds
  • Clear skies
Temperature Dewpoint
9°C / 48°F 5°C / 41°F
Humidity Altimeter Pressure
76% 30.15" Hg 1021 hPa